Vining, IA (52348)

1:31 AM CDT on April 27, 2017 (GMT -0500)
Vine Street | | Change Station

Elev 870 ft 41.99 °N, 92.57 °W | Updated 34 seconds ago

Overcast
Overcast
39.0 °F
Feels Like 35 °F
N
5.3
Wind Variable Wind from West

Today
High -- | Low -- °F
--% Chance of Precip.
Yesterday
High -- | Low -- °F
Precip. -- in
Pressure 29.53 in
Visibility 10.0 miles
Clouds Scattered Clouds 1900 ft
Scattered Clouds 2400 ft
Scattered Clouds 6000 ft
Windchill 35 °F
Dew Point 37 °F
Humidity 92%
Rainfall 0.00 in
Snow Depth Not available.
6:10 AM 8:04 PM
New Moon, 1% visible
METAR KVTI 270555Z AUTO 32008G16KT 10SM -RA SCT019 SCT024 SCT060 05/01 A2953 RMK AO2
Pressure 29.53 in
Visibility 10.0 miles
Clouds Scattered Clouds 1900 ft
Scattered Clouds 2400 ft
Scattered Clouds 6000 ft
Windchill 35 °F
Dew Point 37 °F
Humidity 92%
Rainfall 0.00 in
Snow Depth Not available.
6:10 AM 8:04 PM
New Moon, 1% visible
METAR KVTI 270555Z AUTO 32008G16KT 10SM -RA SCT019 SCT024 SCT060 05/01 A2953 RMK AO2

Get Severe Weather Alerts

Thanks for signing up!

Be on the lookout for a verification email in your inbox.

You'll start receiving the daily forecast at 8 AM.

×

10-Day Weather Forecast

Almanac

Astronomy

Apr. 27, 2017 Rise Set
Actual Time
Civil Twilight
Nautical Twilight
Astronomical Twilight
Moon
Length of Visible Light
Length of Day
Tomorrow will be .
, % of the Moon is Illuminated

Today's Extremes

State Highs State Lows

Community

WunderPhotos

WunderBlog® & News

Nearby

Air Quality

  Air Quality AQ Index Pollutant
Not available.

Snow Depth

Station Depth Elevation

Earthquake Activity

City Distance Mag. Time & Date
Minimum magnitude displayed is 2.5.

Coastal Water Temperatures

Place Temperature

Stations

Nearby Weather Stations

Station Location Temp. Windchill Dew Point Humidity Wind Precip. Elev Updated Type
                   

Watches & Warnings

There are currently no watches in effect.